sensor_id;sensor_type;location;lat;lon;timestamp;temperature;humidity
47546;DHT22;50104;52.002;4.688;2023-07-24T00:04:59;20.30;78.90
47546;DHT22;50104;52.002;4.688;2023-07-24T00:09:59;20.30;78.90
47546;DHT22;50104;52.002;4.688;2023-07-24T00:15:00;20.30;78.90
47546;DHT22;50104;52.002;4.688;2023-07-24T00:20:01;20.20;79.20
47546;DHT22;50104;52.002;4.688;2023-07-24T00:25:02;20.20;79.00
47546;DHT22;50104;52.002;4.688;2023-07-24T00:30:03;20.20;79.30
47546;DHT22;50104;52.002;4.688;2023-07-24T00:35:04;20.20;79.10
47546;DHT22;50104;52.002;4.688;2023-07-24T00:40:06;20.20;79.30
47546;DHT22;50104;52.002;4.688;2023-07-24T00:45:07;20.10;79.40
47546;DHT22;50104;52.002;4.688;2023-07-24T00:50:10;20.10;79.00
47546;DHT22;50104;52.002;4.688;2023-07-24T00:55:13;20.10;79.20
47546;DHT22;50104;52.002;4.688;2023-07-24T01:00:14;20.00;79.40
47546;DHT22;50104;52.002;4.688;2023-07-24T01:05:15;20.00;79.80
47546;DHT22;50104;52.002;4.688;2023-07-24T01:10:17;20.00;79.70
47546;DHT22;50104;52.002;4.688;2023-07-24T01:20:39;19.90;80.10
47546;DHT22;50104;52.002;4.688;2023-07-24T01:26:03;19.90;80.30
47546;DHT22;50104;52.002;4.688;2023-07-24T01:31:05;19.90;80.40
47546;DHT22;50104;52.002;4.688;2023-07-24T01:36:07;19.90;80.40
47546;DHT22;50104;52.002;4.688;2023-07-24T01:41:08;19.90;80.70
47546;DHT22;50104;52.002;4.688;2023-07-24T01:46:08;19.80;80.70
47546;DHT22;50104;52.002;4.688;2023-07-24T01:51:09;19.80;80.90
47546;DHT22;50104;52.002;4.688;2023-07-24T01:56:10;19.80;80.90
47546;DHT22;50104;52.002;4.688;2023-07-24T02:01:11;19.80;81.20
47546;DHT22;50104;52.002;4.688;2023-07-24T02:06:11;19.80;81.20
47546;DHT22;50104;52.002;4.688;2023-07-24T02:11:12;19.80;81.20
47546;DHT22;50104;52.002;4.688;2023-07-24T02:16:13;19.80;81.20
47546;DHT22;50104;52.002;4.688;2023-07-24T02:21:14;19.70;81.00
47546;DHT22;50104;52.002;4.688;2023-07-24T02:26:14;19.70;81.20
47546;DHT22;50104;52.002;4.688;2023-07-24T02:31:15;19.70;81.20
47546;DHT22;50104;52.002;4.688;2023-07-24T02:36:16;19.70;81.20
47546;DHT22;50104;52.002;4.688;2023-07-24T02:41:17;19.70;81.00
47546;DHT22;50104;52.002;4.688;2023-07-24T02:46:17;19.70;81.20
47546;DHT22;50104;52.002;4.688;2023-07-24T02:51:18;19.70;81.20
47546;DHT22;50104;52.002;4.688;2023-07-24T02:56:19;19.70;81.20
47546;DHT22;50104;52.002;4.688;2023-07-24T03:01:21;19.60;81.40
47546;DHT22;50104;52.002;4.688;2023-07-24T03:06:21;19.60;81.30
47546;DHT22;50104;52.002;4.688;2023-07-24T03:11:22;19.60;81.10
47546;DHT22;50104;52.002;4.688;2023-07-24T03:16:23;19.60;81.00
47546;DHT22;50104;52.002;4.688;2023-07-24T03:21:23;19.50;81.10
47546;DHT22;50104;52.002;4.688;2023-07-24T03:26:24;19.50;81.10
47546;DHT22;50104;52.002;4.688;2023-07-24T03:31:25;19.50;81.30
47546;DHT22;50104;52.002;4.688;2023-07-24T03:36:26;19.50;81.40
47546;DHT22;50104;52.002;4.688;2023-07-24T03:41:26;19.40;81.30
47546;DHT22;50104;52.002;4.688;2023-07-24T03:46:27;19.40;81.40
47546;DHT22;50104;52.002;4.688;2023-07-24T03:51:28;19.40;81.50
47546;DHT22;50104;52.002;4.688;2023-07-24T03:56:29;19.40;81.30
47546;DHT22;50104;52.002;4.688;2023-07-24T04:01:29;19.40;81.40
47546;DHT22;50104;52.002;4.688;2023-07-24T04:06:30;19.40;81.50
47546;DHT22;50104;52.002;4.688;2023-07-24T04:11:31;19.40;81.50
47546;DHT22;50104;52.002;4.688;2023-07-24T04:16:32;19.40;81.50
47546;DHT22;50104;52.002;4.688;2023-07-24T04:21:32;19.40;81.40
47546;DHT22;50104;52.002;4.688;2023-07-24T04:26:33;19.40;81.60
47546;DHT22;50104;52.002;4.688;2023-07-24T04:31:34;19.40;81.60
47546;DHT22;50104;52.002;4.688;2023-07-24T04:36:35;19.30;81.60
47546;DHT22;50104;52.002;4.688;2023-07-24T04:41:35;19.30;81.60
47546;DHT22;50104;52.002;4.688;2023-07-24T04:46:36;19.30;81.50
47546;DHT22;50104;52.002;4.688;2023-07-24T04:51:37;19.30;81.40
47546;DHT22;50104;52.002;4.688;2023-07-24T04:56:38;19.30;81.20
47546;DHT22;50104;52.002;4.688;2023-07-24T05:01:38;19.20;81.00
47546;DHT22;50104;52.002;4.688;2023-07-24T05:06:39;19.20;80.70
47546;DHT22;50104;52.002;4.688;2023-07-24T05:11:41;19.20;80.50
47546;DHT22;50104;52.002;4.688;2023-07-24T05:16:44;19.20;80.50
47546;DHT22;50104;52.002;4.688;2023-07-24T05:21:45;19.20;80.40
47546;DHT22;50104;52.002;4.688;2023-07-24T05:26:46;19.20;80.20
47546;DHT22;50104;52.002;4.688;2023-07-24T05:31:47;19.20;80.20
47546;DHT22;50104;52.002;4.688;2023-07-24T05:36:48;19.20;80.20
47546;DHT22;50104;52.002;4.688;2023-07-24T05:41:48;19.20;80.10
47546;DHT22;50104;52.002;4.688;2023-07-24T05:46:49;19.20;80.00
47546;DHT22;50104;52.002;4.688;2023-07-24T05:51:50;19.30;80.10
47546;DHT22;50104;52.002;4.688;2023-07-24T05:56:52;19.30;80.10
47546;DHT22;50104;52.002;4.688;2023-07-24T06:01:53;19.30;80.00
47546;DHT22;50104;52.002;4.688;2023-07-24T06:06:54;19.30;79.90
47546;DHT22;50104;52.002;4.688;2023-07-24T06:11:54;19.30;79.80
47546;DHT22;50104;52.002;4.688;2023-07-24T06:16:55;19.30;79.80
47546;DHT22;50104;52.002;4.688;2023-07-24T06:21:56;19.30;79.70
47546;DHT22;50104;52.002;4.688;2023-07-24T06:26:57;19.40;79.80
47546;DHT22;50104;52.002;4.688;2023-07-24T06:31:57;19.50;79.90
47546;DHT22;50104;52.002;4.688;2023-07-24T06:36:58;19.50;80.00
47546;DHT22;50104;52.002;4.688;2023-07-24T06:41:59;19.60;80.20
47546;DHT22;50104;52.002;4.688;2023-07-24T06:47:00;19.80;79.90
47546;DHT22;50104;52.002;4.688;2023-07-24T06:52:01;19.90;79.90
47546;DHT22;50104;52.002;4.688;2023-07-24T06:57:02;20.00;79.80
47546;DHT22;50104;52.002;4.688;2023-07-24T07:02:03;20.20;79.30
47546;DHT22;50104;52.002;4.688;2023-07-24T07:07:04;20.30;78.60
47546;DHT22;50104;52.002;4.688;2023-07-24T07:12:05;20.40;78.10
47546;DHT22;50104;52.002;4.688;2023-07-24T07:17:06;20.50;78.30
47546;DHT22;50104;52.002;4.688;2023-07-24T07:22:07;20.50;78.90
47546;DHT22;50104;52.002;4.688;2023-07-24T07:27:08;20.70;78.20
47546;DHT22;50104;52.002;4.688;2023-07-24T07:32:08;20.80;78.00
47546;DHT22;50104;52.002;4.688;2023-07-24T07:37:09;20.90;77.50
47546;DHT22;50104;52.002;4.688;2023-07-24T07:42:10;21.10;77.20
47546;DHT22;50104;52.002;4.688;2023-07-24T07:47:11;21.20;77.20
47546;DHT22;50104;52.002;4.688;2023-07-24T07:52:12;21.30;76.80
47546;DHT22;50104;52.002;4.688;2023-07-24T07:57:15;21.40;76.60
47546;DHT22;50104;52.002;4.688;2023-07-24T08:02:16;21.40;76.80
47546;DHT22;50104;52.002;4.688;2023-07-24T08:07:17;21.50;76.50
47546;DHT22;50104;52.002;4.688;2023-07-24T08:12:18;21.50;77.00
47546;DHT22;50104;52.002;4.688;2023-07-24T08:17:18;21.50;76.70
47546;DHT22;50104;52.002;4.688;2023-07-24T08:22:20;21.60;76.80
47546;DHT22;50104;52.002;4.688;2023-07-24T08:27:23;21.70;76.80
47546;DHT22;50104;52.002;4.688;2023-07-24T08:32:23;21.80;76.70
47546;DHT22;50104;52.002;4.688;2023-07-24T08:37:24;21.80;76.50
47546;DHT22;50104;52.002;4.688;2023-07-24T08:42:25;21.90;76.40
47546;DHT22;50104;52.002;4.688;2023-07-24T08:47:26;22.00;76.40
47546;DHT22;50104;52.002;4.688;2023-07-24T08:52:27;22.20;76.80
47546;DHT22;50104;52.002;4.688;2023-07-24T08:57:28;22.30;76.30
47546;DHT22;50104;52.002;4.688;2023-07-24T09:02:34;22.40;75.50
47546;DHT22;50104;52.002;4.688;2023-07-24T09:07:35;22.50;75.30
47546;DHT22;50104;52.002;4.688;2023-07-24T09:12:37;22.60;74.40
47546;DHT22;50104;52.002;4.688;2023-07-24T09:17:50;22.60;73.80
47546;DHT22;50104;52.002;4.688;2023-07-24T09:22:53;22.60;73.80
47546;DHT22;50104;52.002;4.688;2023-07-24T09:27:54;22.60;74.60
47546;DHT22;50104;52.002;4.688;2023-07-24T09:32:54;22.80;75.10
47546;DHT22;50104;52.002;4.688;2023-07-24T09:38:09;22.90;74.90
47546;DHT22;50104;52.002;4.688;2023-07-24T09:48:25;23.30;73.70
47546;DHT22;50104;52.002;4.688;2023-07-24T09:53:34;23.40;73.20
47546;DHT22;50104;52.002;4.688;2023-07-24T09:58:40;23.60;73.30
47546;DHT22;50104;52.002;4.688;2023-07-24T10:03:47;23.70;72.60
47546;DHT22;50104;52.002;4.688;2023-07-24T10:08:49;23.90;71.90
47546;DHT22;50104;52.002;4.688;2023-07-24T10:13:50;24.00;70.30
47546;DHT22;50104;52.002;4.688;2023-07-24T10:18:51;24.20;71.50
47546;DHT22;50104;52.002;4.688;2023-07-24T10:23:52;24.40;70.70
47546;DHT22;50104;52.002;4.688;2023-07-24T10:28:53;24.50;69.80
47546;DHT22;50104;52.002;4.688;2023-07-24T10:33:55;24.50;69.80
47546;DHT22;50104;52.002;4.688;2023-07-24T10:38:57;24.50;70.20
47546;DHT22;50104;52.002;4.688;2023-07-24T10:43:59;24.50;69.80
47546;DHT22;50104;52.002;4.688;2023-07-24T10:49:01;24.50;67.60
47546;DHT22;50104;52.002;4.688;2023-07-24T10:54:04;24.60;67.80
47546;DHT22;50104;52.002;4.688;2023-07-24T10:59:05;24.70;67.60
47546;DHT22;50104;52.002;4.688;2023-07-24T11:04:06;24.80;67.00
47546;DHT22;50104;52.002;4.688;2023-07-24T11:09:07;25.00;67.70
47546;DHT22;50104;52.002;4.688;2023-07-24T11:14:13;25.00;66.60
47546;DHT22;50104;52.002;4.688;2023-07-24T11:19:23;25.10;66.70
47546;DHT22;50104;52.002;4.688;2023-07-24T11:24:24;25.10;66.60
47546;DHT22;50104;52.002;4.688;2023-07-24T11:29:25;25.10;65.40
47546;DHT22;50104;52.002;4.688;2023-07-24T11:34:26;25.10;65.10
47546;DHT22;50104;52.002;4.688;2023-07-24T11:39:27;25.10;66.10
47546;DHT22;50104;52.002;4.688;2023-07-24T11:44:28;25.00;65.30
47546;DHT22;50104;52.002;4.688;2023-07-24T11:49:30;25.00;66.40
47546;DHT22;50104;52.002;4.688;2023-07-24T11:54:35;24.90;66.30
47546;DHT22;50104;52.002;4.688;2023-07-24T11:59:37;24.80;66.60
47546;DHT22;50104;52.002;4.688;2023-07-24T12:04:39;24.70;67.00
47546;DHT22;50104;52.002;4.688;2023-07-24T12:09:40;24.60;66.80
47546;DHT22;50104;52.002;4.688;2023-07-24T12:14:41;24.40;67.20
47546;DHT22;50104;52.002;4.688;2023-07-24T12:19:42;24.30;67.30
47546;DHT22;50104;52.002;4.688;2023-07-24T12:24:42;24.30;67.70
47546;DHT22;50104;52.002;4.688;2023-07-24T12:29:43;24.30;67.90
47546;DHT22;50104;52.002;4.688;2023-07-24T12:34:46;24.30;68.40
47546;DHT22;50104;52.002;4.688;2023-07-24T12:39:48;24.30;67.80
47546;DHT22;50104;52.002;4.688;2023-07-24T12:44:49;24.40;68.00
47546;DHT22;50104;52.002;4.688;2023-07-24T12:49:50;24.40;68.10
47546;DHT22;50104;52.002;4.688;2023-07-24T12:54:53;24.50;68.30
47546;DHT22;50104;52.002;4.688;2023-07-24T12:59:54;24.60;68.00
47546;DHT22;50104;52.002;4.688;2023-07-24T13:04:54;24.70;68.20
47546;DHT22;50104;52.002;4.688;2023-07-24T13:09:55;24.90;68.20
47546;DHT22;50104;52.002;4.688;2023-07-24T13:14:56;25.00;68.40
47546;DHT22;50104;52.002;4.688;2023-07-24T13:19:57;25.20;67.60
47546;DHT22;50104;52.002;4.688;2023-07-24T13:24:57;25.20;67.40
47546;DHT22;50104;52.002;4.688;2023-07-24T13:29:59;25.20;67.50
47546;DHT22;50104;52.002;4.688;2023-07-24T13:34:59;25.20;67.30
47546;DHT22;50104;52.002;4.688;2023-07-24T13:40:00;25.20;67.30
47546;DHT22;50104;52.002;4.688;2023-07-24T13:45:01;25.10;67.00
47546;DHT22;50104;52.002;4.688;2023-07-24T13:50:02;25.00;67.00
47546;DHT22;50104;52.002;4.688;2023-07-24T13:55:04;24.90;67.20
47546;DHT22;50104;52.002;4.688;2023-07-24T14:00:06;24.90;67.80
47546;DHT22;50104;52.002;4.688;2023-07-24T14:05:07;24.80;67.70
47546;DHT22;50104;52.002;4.688;2023-07-24T14:10:09;24.80;67.70
47546;DHT22;50104;52.002;4.688;2023-07-24T14:15:10;24.80;67.50
47546;DHT22;50104;52.002;4.688;2023-07-24T14:20:11;24.70;67.40
47546;DHT22;50104;52.002;4.688;2023-07-24T14:25:12;24.70;67.20
47546;DHT22;50104;52.002;4.688;2023-07-24T14:30:12;24.60;66.80
47546;DHT22;50104;52.002;4.688;2023-07-24T14:35:13;24.50;67.70
47546;DHT22;50104;52.002;4.688;2023-07-24T14:40:14;24.50;68.10
47546;DHT22;50104;52.002;4.688;2023-07-24T14:45:15;24.60;68.30
47546;DHT22;50104;52.002;4.688;2023-07-24T14:50:16;24.50;67.70
47546;DHT22;50104;52.002;4.688;2023-07-24T14:55:16;24.40;66.50
47546;DHT22;50104;52.002;4.688;2023-07-24T15:00:17;24.30;66.00
47546;DHT22;50104;52.002;4.688;2023-07-24T15:05:18;24.10;65.90
47546;DHT22;50104;52.002;4.688;2023-07-24T15:10:19;24.00;66.30
47546;DHT22;50104;52.002;4.688;2023-07-24T15:15:21;23.80;67.00
47546;DHT22;50104;52.002;4.688;2023-07-24T15:20:22;23.70;67.90
47546;DHT22;50104;52.002;4.688;2023-07-24T15:25:23;23.70;68.70
47546;DHT22;50104;52.002;4.688;2023-07-24T15:30:24;23.70;67.10
47546;DHT22;50104;52.002;4.688;2023-07-24T15:35:25;23.70;67.60
47546;DHT22;50104;52.002;4.688;2023-07-24T15:40:26;23.70;67.30
47546;DHT22;50104;52.002;4.688;2023-07-24T15:45:27;23.60;66.90
47546;DHT22;50104;52.002;4.688;2023-07-24T15:50:27;23.60;67.10
47546;DHT22;50104;52.002;4.688;2023-07-24T15:55:28;23.50;66.90
47546;DHT22;50104;52.002;4.688;2023-07-24T16:00:29;23.30;66.30
47546;DHT22;50104;52.002;4.688;2023-07-24T16:05:30;23.20;65.50
47546;DHT22;50104;52.002;4.688;2023-07-24T16:10:31;23.00;66.20
47546;DHT22;50104;52.002;4.688;2023-07-24T16:15:33;22.90;65.90
47546;DHT22;50104;52.002;4.688;2023-07-24T16:20:33;22.80;66.50
47546;DHT22;50104;52.002;4.688;2023-07-24T16:25:35;22.60;66.30
47546;DHT22;50104;52.002;4.688;2023-07-24T16:30:36;22.50;66.90
47546;DHT22;50104;52.002;4.688;2023-07-24T16:35:37;22.40;67.50
47546;DHT22;50104;52.002;4.688;2023-07-24T16:40:37;22.40;67.50
47546;DHT22;50104;52.002;4.688;2023-07-24T16:45:38;22.30;68.00
47546;DHT22;50104;52.002;4.688;2023-07-24T16:50:39;22.30;68.40
47546;DHT22;50104;52.002;4.688;2023-07-24T16:55:40;22.30;68.40
47546;DHT22;50104;52.002;4.688;2023-07-24T17:00:40;22.30;68.30
47546;DHT22;50104;52.002;4.688;2023-07-24T17:05:41;22.30;68.30
47546;DHT22;50104;52.002;4.688;2023-07-24T17:10:47;22.30;68.60
47546;DHT22;50104;52.002;4.688;2023-07-24T17:15:48;22.40;68.70
47546;DHT22;50104;52.002;4.688;2023-07-24T17:20:49;22.40;69.00
47546;DHT22;50104;52.002;4.688;2023-07-24T17:25:50;22.50;67.80
47546;DHT22;50104;52.002;4.688;2023-07-24T17:30:51;22.50;67.40
47546;DHT22;50104;52.002;4.688;2023-07-24T17:35:52;22.50;67.40
47546;DHT22;50104;52.002;4.688;2023-07-24T17:40:53;22.40;66.70
47546;DHT22;50104;52.002;4.688;2023-07-24T17:45:53;22.40;65.60
47546;DHT22;50104;52.002;4.688;2023-07-24T17:50:55;22.20;65.30
47546;DHT22;50104;52.002;4.688;2023-07-24T17:55:57;22.10;65.40
47546;DHT22;50104;52.002;4.688;2023-07-24T18:00:58;22.00;65.80
47546;DHT22;50104;52.002;4.688;2023-07-24T18:05:59;21.80;66.40
47546;DHT22;50104;52.002;4.688;2023-07-24T18:11:00;21.70;66.60
47546;DHT22;50104;52.002;4.688;2023-07-24T18:16:00;21.50;67.10
47546;DHT22;50104;52.002;4.688;2023-07-24T18:21:01;21.40;67.20
47546;DHT22;50104;52.002;4.688;2023-07-24T18:26:05;21.30;67.00
47546;DHT22;50104;52.002;4.688;2023-07-24T18:31:07;21.20;67.10
47546;DHT22;50104;52.002;4.688;2023-07-24T18:36:08;21.10;67.40
47546;DHT22;50104;52.002;4.688;2023-07-24T18:41:08;21.00;67.60
47546;DHT22;50104;52.002;4.688;2023-07-24T18:46:09;21.00;67.70
47546;DHT22;50104;52.002;4.688;2023-07-24T18:51:10;20.90;67.80
47546;DHT22;50104;52.002;4.688;2023-07-24T18:56:11;20.90;67.90
47546;DHT22;50104;52.002;4.688;2023-07-24T19:01:12;20.80;67.70
47546;DHT22;50104;52.002;4.688;2023-07-24T19:06:12;20.70;67.20
47546;DHT22;50104;52.002;4.688;2023-07-24T19:11:15;20.60;66.70
47546;DHT22;50104;52.002;4.688;2023-07-24T19:16:16;20.50;66.60
47546;DHT22;50104;52.002;4.688;2023-07-24T19:21:17;20.40;66.70
47546;DHT22;50104;52.002;4.688;2023-07-24T19:26:17;20.20;66.90
47546;DHT22;50104;52.002;4.688;2023-07-24T19:31:18;20.10;67.10
47546;DHT22;50104;52.002;4.688;2023-07-24T19:36:19;20.00;67.50
47546;DHT22;50104;52.002;4.688;2023-07-24T19:41:20;19.90;67.80
47546;DHT22;50104;52.002;4.688;2023-07-24T19:46:20;19.80;67.90
47546;DHT22;50104;52.002;4.688;2023-07-24T19:51:22;19.60;68.00
47546;DHT22;50104;52.002;4.688;2023-07-24T19:56:23;19.50;68.20
47546;DHT22;50104;52.002;4.688;2023-07-24T20:01:24;19.40;68.40
47546;DHT22;50104;52.002;4.688;2023-07-24T20:06:27;19.30;68.70
47546;DHT22;50104;52.002;4.688;2023-07-24T20:11:28;19.20;69.00
47546;DHT22;50104;52.002;4.688;2023-07-24T20:16:29;19.10;69.10
47546;DHT22;50104;52.002;4.688;2023-07-24T20:21:29;19.00;69.10
47546;DHT22;50104;52.002;4.688;2023-07-24T20:26:30;18.90;69.10
47546;DHT22;50104;52.002;4.688;2023-07-24T20:31:31;18.80;68.80
47546;DHT22;50104;52.002;4.688;2023-07-24T20:36:32;18.70;68.60
47546;DHT22;50104;52.002;4.688;2023-07-24T20:41:33;18.50;68.70
47546;DHT22;50104;52.002;4.688;2023-07-24T20:46:34;18.40;68.80
47546;DHT22;50104;52.002;4.688;2023-07-24T20:51:35;18.20;69.00
47546;DHT22;50104;52.002;4.688;2023-07-24T20:56:36;18.10;69.20
47546;DHT22;50104;52.002;4.688;2023-07-24T21:01:37;18.00;69.50
47546;DHT22;50104;52.002;4.688;2023-07-24T21:06:38;17.80;69.70
47546;DHT22;50104;52.002;4.688;2023-07-24T21:11:39;17.70;70.00
47546;DHT22;50104;52.002;4.688;2023-07-24T21:16:39;17.60;70.10
47546;DHT22;50104;52.002;4.688;2023-07-24T21:21:40;17.50;70.30
47546;DHT22;50104;52.002;4.688;2023-07-24T21:26:41;17.40;70.40
47546;DHT22;50104;52.002;4.688;2023-07-24T21:31:42;17.20;70.80
47546;DHT22;50104;52.002;4.688;2023-07-24T21:36:43;17.10;70.90
47546;DHT22;50104;52.002;4.688;2023-07-24T21:41:43;17.00;71.20
47546;DHT22;50104;52.002;4.688;2023-07-24T21:46:44;16.90;71.50
47546;DHT22;50104;52.002;4.688;2023-07-24T21:51:45;16.80;71.80
47546;DHT22;50104;52.002;4.688;2023-07-24T21:56:46;16.70;72.20
47546;DHT22;50104;52.002;4.688;2023-07-24T22:01:47;16.60;72.60
47546;DHT22;50104;52.002;4.688;2023-07-24T22:06:47;16.50;72.70
47546;DHT22;50104;52.002;4.688;2023-07-24T22:11:48;16.40;72.80
47546;DHT22;50104;52.002;4.688;2023-07-24T22:16:49;16.30;72.90
47546;DHT22;50104;52.002;4.688;2023-07-24T22:21:49;16.20;73.00
47546;DHT22;50104;52.002;4.688;2023-07-24T22:26:50;16.10;73.10
47546;DHT22;50104;52.002;4.688;2023-07-24T22:31:51;16.00;73.40
47546;DHT22;50104;52.002;4.688;2023-07-24T22:36:52;15.90;73.60
47546;DHT22;50104;52.002;4.688;2023-07-24T22:41:52;15.80;73.70
47546;DHT22;50104;52.002;4.688;2023-07-24T22:46:53;15.80;73.90
47546;DHT22;50104;52.002;4.688;2023-07-24T22:51:54;15.70;74.00
47546;DHT22;50104;52.002;4.688;2023-07-24T22:56:55;15.60;74.10
47546;DHT22;50104;52.002;4.688;2023-07-24T23:01:57;15.50;74.20
47546;DHT22;50104;52.002;4.688;2023-07-24T23:06:58;15.50;74.40
47546;DHT22;50104;52.002;4.688;2023-07-24T23:12:00;15.40;74.40
47546;DHT22;50104;52.002;4.688;2023-07-24T23:17:00;15.30;74.50
47546;DHT22;50104;52.002;4.688;2023-07-24T23:22:01;15.20;74.50
47546;DHT22;50104;52.002;4.688;2023-07-24T23:27:02;15.10;74.60
47546;DHT22;50104;52.002;4.688;2023-07-24T23:32:03;15.00;74.70
47546;DHT22;50104;52.002;4.688;2023-07-24T23:37:04;14.90;75.00
47546;DHT22;50104;52.002;4.688;2023-07-24T23:42:05;14.80;75.10
47546;DHT22;50104;52.002;4.688;2023-07-24T23:47:06;14.80;75.20
47546;DHT22;50104;52.002;4.688;2023-07-24T23:52:07;14.70;75.50
47546;DHT22;50104;52.002;4.688;2023-07-24T23:57:08;14.60;75.70
